sensor_id;sensor_type;location;lat;lon;timestamp;pressure;altitude;pressure_sealevel;temperature;humidity
12624;BME280;6377;42.836;23.998;2023-02-12T00:01:01;96504.00;;;-5.32;100.00
12624;BME280;6377;42.836;23.998;2023-02-12T00:03:28;96664.75;;;-4.27;100.00
12624;BME280;6377;42.836;23.998;2023-02-12T00:06:00;96644.22;;;-4.50;100.00
12624;BME280;6377;42.836;23.998;2023-02-12T00:11:07;96673.47;;;-4.10;100.00
12624;BME280;6377;42.836;23.998;2023-02-12T00:13:35;96670.13;;;-4.12;100.00
12624;BME280;6377;42.836;23.998;2023-02-12T00:16:04;96673.81;;;-4.17;100.00
12624;BME280;6377;42.836;23.998;2023-02-12T00:18:32;96686.50;;;-4.13;100.00
12624;BME280;6377;42.836;23.998;2023-02-12T00:21:01;96688.78;;;-4.05;100.00
12624;BME280;6377;42.836;23.998;2023-02-12T00:23:28;96692.19;;;-4.05;100.00
12624;BME280;6377;42.836;23.998;2023-02-12T00:25:55;96690.31;;;-4.01;100.00
12624;BME280;6377;42.836;23.998;2023-02-12T00:28:23;96681.78;;;-4.03;100.00
12624;BME280;6377;42.836;23.998;2023-02-12T00:30:50;96675.84;;;-4.05;100.00
12624;BME280;6377;42.836;23.998;2023-02-12T00:33:17;96667.06;;;-4.21;100.00
12624;BME280;6377;42.836;23.998;2023-02-12T00:35:44;96659.13;;;-4.37;100.00
12624;BME280;6377;42.836;23.998;2023-02-12T00:38:13;96654.78;;;-4.57;100.00
12624;BME280;6377;42.836;23.998;2023-02-12T00:40:40;96601.56;;;-4.79;100.00
12624;BME280;6377;42.836;23.998;2023-02-12T00:43:08;96660.34;;;-4.45;100.00
12624;BME280;6377;42.836;23.998;2023-02-12T00:48:05;96619.25;;;-4.70;100.00
12624;BME280;6377;42.836;23.998;2023-02-12T00:50:32;96631.81;;;-4.63;100.00
12624;BME280;6377;42.836;23.998;2023-02-12T00:52:59;96666.94;;;-4.59;100.00
12624;BME280;6377;42.836;23.998;2023-02-12T00:55:28;96659.72;;;-4.50;100.00
12624;BME280;6377;42.836;23.998;2023-02-12T00:57:57;96651.59;;;-4.41;100.00
12624;BME280;6377;42.836;23.998;2023-02-12T01:00:24;96669.41;;;-4.35;100.00
12624;BME280;6377;42.836;23.998;2023-02-12T01:02:52;96619.88;;;-4.65;100.00
12624;BME280;6377;42.836;23.998;2023-02-12T01:05:19;96655.06;;;-4.42;100.00
12624;BME280;6377;42.836;23.998;2023-02-12T01:07:48;96670.75;;;-4.27;100.00
12624;BME280;6377;42.836;23.998;2023-02-12T01:10:16;96672.38;;;-4.24;100.00
12624;BME280;6377;42.836;23.998;2023-02-12T01:12:47;96666.44;;;-4.46;100.00
12624;BME280;6377;42.836;23.998;2023-02-12T01:15:15;96663.56;;;-4.61;100.00
12624;BME280;6377;42.836;23.998;2023-02-12T01:17:43;96655.28;;;-4.69;100.00
12624;BME280;6377;42.836;23.998;2023-02-12T01:20:13;96668.16;;;-4.67;100.00
12624;BME280;6377;42.836;23.998;2023-02-12T01:22:43;96631.94;;;-4.86;100.00
12624;BME280;6377;42.836;23.998;2023-02-12T01:25:10;96661.44;;;-4.71;100.00
12624;BME280;6377;42.836;23.998;2023-02-12T01:27:38;96670.78;;;-4.69;100.00
12624;BME280;6377;42.836;23.998;2023-02-12T01:30:09;96659.56;;;-4.68;100.00
12624;BME280;6377;42.836;23.998;2023-02-12T01:32:37;96655.75;;;-4.79;100.00
12624;BME280;6377;42.836;23.998;2023-02-12T01:35:06;96663.00;;;-4.67;100.00
12624;BME280;6377;42.836;23.998;2023-02-12T01:37:34;96654.16;;;-4.62;100.00
12624;BME280;6377;42.836;23.998;2023-02-12T01:40:02;96627.16;;;-4.75;100.00
12624;BME280;6377;42.836;23.998;2023-02-12T01:42:29;96652.16;;;-4.55;100.00
12624;BME280;6377;42.836;23.998;2023-02-12T01:45:41;96655.97;;;-4.43;100.00
12624;BME280;6377;42.836;23.998;2023-02-12T01:48:10;96665.97;;;-4.56;100.00
12624;BME280;6377;42.836;23.998;2023-02-12T01:50:38;96658.69;;;-4.46;100.00
12624;BME280;6377;42.836;23.998;2023-02-12T01:53:05;96639.56;;;-4.63;100.00
12624;BME280;6377;42.836;23.998;2023-02-12T01:55:33;96659.13;;;-4.37;100.00
12624;BME280;6377;42.836;23.998;2023-02-12T01:58:01;96655.97;;;-4.43;100.00
12624;BME280;6377;42.836;23.998;2023-02-12T02:00:30;96652.41;;;-4.21;100.00
12624;BME280;6377;42.836;23.998;2023-02-12T02:03:01;96658.22;;;-4.16;100.00
12624;BME280;6377;42.836;23.998;2023-02-12T02:05:34;96551.47;;;-4.75;100.00
12624;BME280;6377;42.836;23.998;2023-02-12T02:08:08;96473.63;;;-5.25;100.00
12624;BME280;6377;42.836;23.998;2023-02-12T02:10:35;96595.09;;;-4.49;100.00
12624;BME280;6377;42.836;23.998;2023-02-12T02:13:03;96471.00;;;-5.24;100.00
12624;BME280;6377;42.836;23.998;2023-02-12T02:15:50;96601.28;;;-4.33;100.00
12624;BME280;6377;42.836;23.998;2023-02-12T02:18:27;96624.31;;;-4.08;100.00
12624;BME280;6377;42.836;23.998;2023-02-12T02:21:24;96640.09;;;-3.96;100.00
12624;BME280;6377;42.836;23.998;2023-02-12T02:30:20;96650.13;;;-3.69;100.00
12624;BME280;6377;42.836;23.998;2023-02-12T02:32:55;96523.28;;;-4.60;100.00
12624;BME280;6377;42.836;23.998;2023-02-12T02:35:27;96652.25;;;-3.98;100.00
12624;BME280;6377;42.836;23.998;2023-02-12T02:38:06;96664.31;;;-3.78;100.00
12624;BME280;6377;42.836;23.998;2023-02-12T02:40:42;96470.41;;;-5.10;100.00
12624;BME280;6377;42.836;23.998;2023-02-12T02:43:16;96667.50;;;-3.91;100.00
12624;BME280;6377;42.836;23.998;2023-02-12T02:45:50;96597.63;;;-4.47;100.00
12624;BME280;6377;42.836;23.998;2023-02-12T02:48:22;96602.06;;;-4.31;100.00
12624;BME280;6377;42.836;23.998;2023-02-12T02:50:55;96541.94;;;-4.73;100.00
12624;BME280;6377;42.836;23.998;2023-02-12T02:53:29;96492.56;;;-4.84;100.00
12624;BME280;6377;42.836;23.998;2023-02-12T02:56:00;96583.31;;;-4.16;100.00
12624;BME280;6377;42.836;23.998;2023-02-12T02:58:31;96661.94;;;-3.64;100.00
12624;BME280;6377;42.836;23.998;2023-02-12T03:01:05;96663.75;;;-3.66;100.00
12624;BME280;6377;42.836;23.998;2023-02-12T03:03:39;96582.34;;;-4.13;100.00
12624;BME280;6377;42.836;23.998;2023-02-12T03:06:12;96656.91;;;-3.85;100.00
12624;BME280;6377;42.836;23.998;2023-02-12T03:08:45;96641.53;;;-3.88;100.00
12624;BME280;6377;42.836;23.998;2023-02-12T03:11:16;96686.03;;;-4.02;100.00
12624;BME280;6377;42.836;23.998;2023-02-12T03:13:48;96505.50;;;-5.06;100.00
12624;BME280;6377;42.836;23.998;2023-02-12T03:16:23;96511.03;;;-4.95;100.00
12624;BME280;6377;42.836;23.998;2023-02-12T03:18:55;96604.34;;;-4.43;100.00
12624;BME280;6377;42.836;23.998;2023-02-12T03:21:31;96588.44;;;-4.34;100.00
12624;BME280;6377;42.836;23.998;2023-02-12T03:24:04;96489.56;;;-4.95;100.00
12624;BME280;6377;42.836;23.998;2023-02-12T03:26:40;96461.00;;;-5.31;100.00
12624;BME280;6377;42.836;23.998;2023-02-12T03:29:09;96472.81;;;-5.05;100.00
12624;BME280;6377;42.836;23.998;2023-02-12T03:31:46;96632.22;;;-3.92;100.00
12624;BME280;6377;42.836;23.998;2023-02-12T03:34:24;96519.31;;;-4.48;100.00
12624;BME280;6377;42.836;23.998;2023-02-12T03:36:56;96653.97;;;-3.78;100.00
12624;BME280;6377;42.836;23.998;2023-02-12T03:39:36;96627.72;;;-3.87;100.00
12624;BME280;6377;42.836;23.998;2023-02-12T03:42:10;96642.94;;;-3.63;100.00
12624;BME280;6377;42.836;23.998;2023-02-12T03:44:47;96651.84;;;-3.50;100.00
12624;BME280;6377;42.836;23.998;2023-02-12T03:49:58;96626.25;;;-3.74;100.00
12624;BME280;6377;42.836;23.998;2023-02-12T03:52:28;96668.25;;;-3.51;100.00
12624;BME280;6377;42.836;23.998;2023-02-12T03:54:56;96483.66;;;-4.40;100.00
12624;BME280;6377;42.836;23.998;2023-02-12T03:57:26;96483.91;;;-4.44;100.00
12624;BME280;6377;42.836;23.998;2023-02-12T03:59:57;96453.88;;;-4.66;100.00
12624;BME280;6377;42.836;23.998;2023-02-12T04:02:25;96574.19;;;-4.04;100.00
12624;BME280;6377;42.836;23.998;2023-02-12T04:04:54;96643.84;;;-3.64;100.00
12624;BME280;6377;42.836;23.998;2023-02-12T04:07:21;96616.19;;;-3.62;100.00
12624;BME280;6377;42.836;23.998;2023-02-12T04:09:48;96615.13;;;-3.58;100.00
12624;BME280;6377;42.836;23.998;2023-02-12T04:12:37;96665.31;;;-3.24;100.00
12624;BME280;6377;42.836;23.998;2023-02-12T04:15:36;96650.50;;;-3.21;100.00
12624;BME280;6377;42.836;23.998;2023-02-12T04:18:10;96652.84;;;-3.16;100.00
12624;BME280;6377;42.836;23.998;2023-02-12T04:20:50;96630.41;;;-3.34;100.00
12624;BME280;6377;42.836;23.998;2023-02-12T04:23:32;96631.00;;;-3.47;100.00
12624;BME280;6377;42.836;23.998;2023-02-12T04:26:09;96660.84;;;-3.21;100.00
12624;BME280;6377;42.836;23.998;2023-02-12T04:28:42;96591.66;;;-3.53;100.00
12624;BME280;6377;42.836;23.998;2023-02-12T04:31:19;96610.31;;;-3.47;100.00
12624;BME280;6377;42.836;23.998;2023-02-12T04:33:55;96648.38;;;-3.13;100.00
12624;BME280;6377;42.836;23.998;2023-02-12T04:36:32;96606.09;;;-3.30;100.00
12624;BME280;6377;42.836;23.998;2023-02-12T04:39:02;96620.44;;;-3.23;100.00
12624;BME280;6377;42.836;23.998;2023-02-12T04:41:31;96624.19;;;-3.12;100.00
12624;BME280;6377;42.836;23.998;2023-02-12T04:44:13;96622.50;;;-3.13;100.00
12624;BME280;6377;42.836;23.998;2023-02-12T04:46:40;96565.56;;;-3.49;100.00
12624;BME280;6377;42.836;23.998;2023-02-12T04:49:13;96622.66;;;-3.16;100.00
12624;BME280;6377;42.836;23.998;2023-02-12T04:51:43;96660.06;;;-2.87;100.00
12624;BME280;6377;42.836;23.998;2023-02-12T04:54:11;96613.19;;;-3.17;100.00
12624;BME280;6377;42.836;23.998;2023-02-12T04:56:38;96620.47;;;-3.06;100.00
12624;BME280;6377;42.836;23.998;2023-02-12T04:59:05;96613.19;;;-3.17;100.00
12624;BME280;6377;42.836;23.998;2023-02-12T05:01:34;96632.28;;;-3.01;100.00
12624;BME280;6377;42.836;23.998;2023-02-12T05:04:02;96626.41;;;-3.04;100.00
12624;BME280;6377;42.836;23.998;2023-02-12T05:06:29;96621.25;;;-2.87;100.00
12624;BME280;6377;42.836;23.998;2023-02-12T05:08:58;96593.59;;;-3.04;100.00
12624;BME280;6377;42.836;23.998;2023-02-12T05:11:25;96649.88;;;-2.73;100.00
12624;BME280;6377;42.836;23.998;2023-02-12T05:13:53;96664.66;;;-2.75;100.00
12624;BME280;6377;42.836;23.998;2023-02-12T05:16:21;96579.75;;;-3.38;100.00
12624;BME280;6377;42.836;23.998;2023-02-12T05:18:48;96628.16;;;-3.05;100.00
12624;BME280;6377;42.836;23.998;2023-02-12T05:21:16;96658.44;;;-2.71;100.00
12624;BME280;6377;42.836;23.998;2023-02-12T05:23:43;96662.91;;;-2.74;100.00
12624;BME280;6377;42.836;23.998;2023-02-12T05:26:15;96670.69;;;-2.74;100.00
12624;BME280;6377;42.836;23.998;2023-02-12T05:28:43;96673.13;;;-2.71;100.00
12624;BME280;6377;42.836;23.998;2023-02-12T05:31:12;96673.13;;;-2.71;100.00
12624;BME280;6377;42.836;23.998;2023-02-12T05:33:41;96654.31;;;-2.75;100.00
12624;BME280;6377;42.836;23.998;2023-02-12T05:36:10;96673.44;;;-2.60;100.00
12624;BME280;6377;42.836;23.998;2023-02-12T05:38:38;96663.63;;;-2.54;100.00
12624;BME280;6377;42.836;23.998;2023-02-12T05:41:07;96671.16;;;-2.49;100.00
12624;BME280;6377;42.836;23.998;2023-02-12T05:43:36;96658.06;;;-2.46;100.00
12624;BME280;6377;42.836;23.998;2023-02-12T05:46:04;96571.63;;;-2.95;100.00
12624;BME280;6377;42.836;23.998;2023-02-12T05:48:33;96565.03;;;-3.19;100.00
12624;BME280;6377;42.836;23.998;2023-02-12T05:51:05;96660.44;;;-2.42;100.00
12624;BME280;6377;42.836;23.998;2023-02-12T05:53:32;96687.25;;;-2.26;100.00
12624;BME280;6377;42.836;23.998;2023-02-12T05:56:10;96682.00;;;-2.24;100.00
12624;BME280;6377;42.836;23.998;2023-02-12T05:58:40;96677.34;;;-2.35;100.00
12624;BME280;6377;42.836;23.998;2023-02-12T06:01:10;96680.88;;;-2.18;100.00
12624;BME280;6377;42.836;23.998;2023-02-12T06:03:38;96691.38;;;-2.21;100.00
12624;BME280;6377;42.836;23.998;2023-02-12T06:06:06;96669.81;;;-2.39;100.00
12624;BME280;6377;42.836;23.998;2023-02-12T06:08:33;96667.91;;;-2.36;100.00
12624;BME280;6377;42.836;23.998;2023-02-12T06:11:01;96691.13;;;-2.17;100.00
12624;BME280;6377;42.836;23.998;2023-02-12T06:13:28;96696.88;;;-2.10;100.00
12624;BME280;6377;42.836;23.998;2023-02-12T06:15:58;96697.00;;;-2.13;100.00
12624;BME280;6377;42.836;23.998;2023-02-12T06:18:26;96692.28;;;-2.05;100.00
12624;BME280;6377;42.836;23.998;2023-02-12T06:20:53;96686.56;;;-1.95;100.00
12624;BME280;6377;42.836;23.998;2023-02-12T06:23:20;96670.41;;;-2.00;100.00
12624;BME280;6377;42.836;23.998;2023-02-12T06:25:47;96634.13;;;-2.17;100.00
12624;BME280;6377;42.836;23.998;2023-02-12T06:28:15;96682.66;;;-1.86;100.00
12624;BME280;6377;42.836;23.998;2023-02-12T06:30:42;96673.28;;;-1.89;100.00
12624;BME280;6377;42.836;23.998;2023-02-12T06:33:11;96682.66;;;-1.86;100.00
12624;BME280;6377;42.836;23.998;2023-02-12T06:35:38;96661.09;;;-2.04;100.00
12624;BME280;6377;42.836;23.998;2023-02-12T06:38:05;96682.59;;;-2.02;100.00
12624;BME280;6377;42.836;23.998;2023-02-12T06:40:33;96679.22;;;-1.87;100.00
12624;BME280;6377;42.836;23.998;2023-02-12T06:43:01;96681.75;;;-1.85;100.00
12624;BME280;6377;42.836;23.998;2023-02-12T06:45:28;96680.06;;;-1.86;100.00
12624;BME280;6377;42.836;23.998;2023-02-12T06:47:55;96681.09;;;-1.73;100.00
12624;BME280;6377;42.836;23.998;2023-02-12T06:50:24;96687.97;;;-1.72;100.00
12624;BME280;6377;42.836;23.998;2023-02-12T06:52:51;96706.06;;;-1.71;100.00
12624;BME280;6377;42.836;23.998;2023-02-12T06:55:18;96615.25;;;-2.19;100.00
12624;BME280;6377;42.836;23.998;2023-02-12T06:57:45;96681.63;;;-1.66;100.00
12624;BME280;6377;42.836;23.998;2023-02-12T07:00:13;96671.72;;;-1.76;100.00
12624;BME280;6377;42.836;23.998;2023-02-12T07:02:41;96698.66;;;-1.45;100.00
12624;BME280;6377;42.836;23.998;2023-02-12T07:07:45;96666.34;;;-1.55;100.00
12624;BME280;6377;42.836;23.998;2023-02-12T07:10:12;96736.91;;;-1.16;100.00
12624;BME280;6377;42.836;23.998;2023-02-12T07:12:40;96548.72;;;-2.18;100.00
12624;BME280;6377;42.836;23.998;2023-02-12T07:15:08;96702.66;;;-1.07;100.00
12624;BME280;6377;42.836;23.998;2023-02-12T07:17:36;96694.03;;;-1.07;100.00
12624;BME280;6377;42.836;23.998;2023-02-12T07:20:04;96647.22;;;-1.22;100.00
12624;BME280;6377;42.836;23.998;2023-02-12T07:22:35;96729.56;;;-0.77;100.00
12624;BME280;6377;42.836;23.998;2023-02-12T07:25:07;96591.63;;;-1.64;100.00
12624;BME280;6377;42.836;23.998;2023-02-12T07:27:35;96546.94;;;-1.85;100.00
12624;BME280;6377;42.836;23.998;2023-02-12T07:30:04;96531.97;;;-1.80;100.00
12624;BME280;6377;42.836;23.998;2023-02-12T07:32:32;96664.28;;;-0.86;100.00
12624;BME280;6377;42.836;23.998;2023-02-12T07:35:00;96709.03;;;-0.50;100.00
12624;BME280;6377;42.836;23.998;2023-02-12T07:37:27;96685.19;;;-0.58;100.00
12624;BME280;6377;42.836;23.998;2023-02-12T07:39:55;96721.91;;;-0.33;100.00
12624;BME280;6377;42.836;23.998;2023-02-12T07:42:24;96735.13;;;-0.22;100.00
12624;BME280;6377;42.836;23.998;2023-02-12T07:44:51;96726.53;;;-0.08;100.00
12624;BME280;6377;42.836;23.998;2023-02-12T07:47:19;96601.97;;;-1.02;100.00
12624;BME280;6377;42.836;23.998;2023-02-12T07:49:46;96639.56;;;-0.62;100.00
12624;BME280;6377;42.836;23.998;2023-02-12T07:52:13;96662.50;;;-0.54;100.00
12624;BME280;6377;42.836;23.998;2023-02-12T07:54:41;96630.88;;;-0.77;100.00
12624;BME280;6377;42.836;23.998;2023-02-12T07:57:08;96750.38;;;0.14;100.00
12624;BME280;6377;42.836;23.998;2023-02-12T08:02:08;96585.94;;;-0.79;100.00
12624;BME280;6377;42.836;23.998;2023-02-12T08:04:36;96636.41;;;-0.23;100.00
12624;BME280;6377;42.836;23.998;2023-02-12T08:07:03;96579.63;;;-0.59;100.00
12624;BME280;6377;42.836;23.998;2023-02-12T08:09:33;96585.47;;;-0.56;100.00
12624;BME280;6377;42.836;23.998;2023-02-12T08:12:01;96569.31;;;-0.61;100.00
12624;BME280;6377;42.836;23.998;2023-02-12T08:14:29;96577.47;;;-0.52;100.00
12624;BME280;6377;42.836;23.998;2023-02-12T08:16:57;96613.22;;;-0.12;100.00
12624;BME280;6377;42.836;23.998;2023-02-12T08:19:26;96658.13;;;0.06;100.00
12624;BME280;6377;42.836;23.998;2023-02-12T08:21:54;96645.72;;;-0.05;100.00
12624;BME280;6377;42.836;23.998;2023-02-12T08:24:22;96760.25;;;0.81;100.00
12624;BME280;6377;42.836;23.998;2023-02-12T08:26:51;96710.97;;;0.64;100.00
12624;BME280;6377;42.836;23.998;2023-02-12T08:29:24;96585.19;;;-0.21;100.00
12624;BME280;6377;42.836;23.998;2023-02-12T08:31:55;96739.47;;;0.80;100.00
12624;BME280;6377;42.836;23.998;2023-02-12T08:34:24;96721.56;;;0.61;100.00
12624;BME280;6377;42.836;23.998;2023-02-12T08:41:59;96597.28;;;-0.06;100.00
12624;BME280;6377;42.836;23.998;2023-02-12T08:44:27;96672.53;;;0.25;100.00
12624;BME280;6377;42.836;23.998;2023-02-12T08:46:54;96714.41;;;0.65;100.00
12624;BME280;6377;42.836;23.998;2023-02-12T08:57:14;96650.69;;;0.42;100.00
12624;BME280;6377;42.836;23.998;2023-02-12T08:59:42;96729.97;;;1.21;100.00
12624;BME280;6377;42.836;23.998;2023-02-12T09:02:12;96665.53;;;0.82;100.00
12624;BME280;6377;42.836;23.998;2023-02-12T09:04:39;96795.59;;;1.68;100.00
12624;BME280;6377;42.836;23.998;2023-02-12T09:07:07;96642.22;;;0.81;100.00
12624;BME280;6377;42.836;23.998;2023-02-12T09:27:42;96819.22;;;2.33;100.00
12624;BME280;6377;42.836;23.998;2023-02-12T09:45:45;96782.63;;;2.20;100.00
12624;BME280;6377;42.836;23.998;2023-02-12T10:32:20;96673.09;;;1.28;100.00
12624;BME280;6377;42.836;23.998;2023-02-12T10:34:51;96671.66;;;1.36;100.00
12624;BME280;6377;42.836;23.998;2023-02-12T10:37:25;96707.25;;;1.64;100.00
12624;BME280;6377;42.836;23.998;2023-02-12T10:40:02;96693.19;;;1.79;100.00
12624;BME280;6377;42.836;23.998;2023-02-12T10:42:36;96839.78;;;2.77;100.00
12624;BME280;6377;42.836;23.998;2023-02-12T10:50:23;96809.09;;;2.29;100.00
12624;BME280;6377;42.836;23.998;2023-02-12T10:52:55;96852.06;;;2.50;100.00
12624;BME280;6377;42.836;23.998;2023-02-12T10:55:27;96695.66;;;1.41;100.00
12624;BME280;6377;42.836;23.998;2023-02-12T10:57:56;96860.91;;;2.35;100.00
12624;BME280;6377;42.836;23.998;2023-02-12T11:00:29;96642.63;;;1.01;100.00
12624;BME280;6377;42.836;23.998;2023-02-12T11:03:03;96678.28;;;1.01;100.00
12624;BME280;6377;42.836;23.998;2023-02-12T11:05:38;96870.56;;;2.20;100.00
12624;BME280;6377;42.836;23.998;2023-02-12T11:08:10;96853.28;;;2.32;100.00
12624;BME280;6377;42.836;23.998;2023-02-12T11:10:52;96696.94;;;1.22;100.00
12624;BME280;6377;42.836;23.998;2023-02-12T11:13:22;96806.19;;;2.06;100.00
12624;BME280;6377;42.836;23.998;2023-02-12T11:15:51;96846.09;;;2.48;100.00
12624;BME280;6377;42.836;23.998;2023-02-12T11:18:22;96752.69;;;1.87;100.00
12624;BME280;6377;42.836;23.998;2023-02-12T11:20:55;96707.13;;;1.39;100.00
12624;BME280;6377;42.836;23.998;2023-02-12T11:23:29;96704.59;;;1.51;100.00
12624;BME280;6377;42.836;23.998;2023-02-12T11:26:00;96681.00;;;1.53;100.00
12624;BME280;6377;42.836;23.998;2023-02-12T11:28:37;96807.88;;;2.47;100.00
12624;BME280;6377;42.836;23.998;2023-02-12T11:31:28;96737.53;;;1.79;100.00
12624;BME280;6377;42.836;23.998;2023-02-12T11:36:34;96724.44;;;1.93;100.00
12624;BME280;6377;42.836;23.998;2023-02-12T11:39:03;96812.41;;;2.57;100.00
12624;BME280;6377;42.836;23.998;2023-02-12T11:41:33;96856.94;;;2.94;100.00
12624;BME280;6377;42.836;23.998;2023-02-12T11:44:08;96815.69;;;2.99;100.00
12624;BME280;6377;42.836;23.998;2023-02-12T11:46:39;96683.81;;;2.29;100.00
12624;BME280;6377;42.836;23.998;2023-02-12T11:49:19;96836.59;;;3.36;100.00
12624;BME280;6377;42.836;23.998;2023-02-12T11:51:49;96690.28;;;2.48;100.00
12624;BME280;6377;42.836;23.998;2023-02-12T11:54:20;96775.66;;;3.11;100.00
12624;BME280;6377;42.836;23.998;2023-02-12T11:56:49;96839.91;;;3.51;100.00
12624;BME280;6377;42.836;23.998;2023-02-12T11:59:41;96746.91;;;2.86;100.00
12624;BME280;6377;42.836;23.998;2023-02-12T12:02:18;96754.63;;;3.00;100.00
12624;BME280;6377;42.836;23.998;2023-02-12T12:04:53;96793.03;;;3.48;99.99
12624;BME280;6377;42.836;23.998;2023-02-12T12:07:26;96826.53;;;3.92;95.99
12624;BME280;6377;42.836;23.998;2023-02-12T12:09:58;96846.59;;;4.04;93.24
12624;BME280;6377;42.836;23.998;2023-02-12T12:12:32;96844.50;;;3.96;93.58
12624;BME280;6377;42.836;23.998;2023-02-12T12:15:09;96857.50;;;3.98;95.18
12624;BME280;6377;42.836;23.998;2023-02-12T12:18:03;96862.75;;;3.85;96.99
12624;BME280;6377;42.836;23.998;2023-02-12T12:20:55;96853.09;;;3.99;96.99
12624;BME280;6377;42.836;23.998;2023-02-12T12:23:31;96856.28;;;4.15;94.17
12624;BME280;6377;42.836;23.998;2023-02-12T12:26:06;96831.47;;;3.84;93.08
12624;BME280;6377;42.836;23.998;2023-02-12T12:28:39;96868.97;;;3.84;96.81
12624;BME280;6377;42.836;23.998;2023-02-12T12:31:10;96872.72;;;3.68;97.59
12624;BME280;6377;42.836;23.998;2023-02-12T12:33:43;96869.63;;;3.50;99.64
12624;BME280;6377;42.836;23.998;2023-02-12T12:36:40;96848.81;;;3.23;100.00
12624;BME280;6377;42.836;23.998;2023-02-12T12:39:16;96864.72;;;3.33;100.00
12624;BME280;6377;42.836;23.998;2023-02-12T12:42:16;96862.09;;;3.20;100.00
12624;BME280;6377;42.836;23.998;2023-02-12T12:45:00;96845.88;;;3.15;100.00
12624;BME280;6377;42.836;23.998;2023-02-12T12:47:39;96872.13;;;3.26;100.00
12624;BME280;6377;42.836;23.998;2023-02-12T12:50:28;96870.47;;;3.25;100.00
12624;BME280;6377;42.836;23.998;2023-02-12T12:53:10;96869.72;;;3.23;100.00
12624;BME280;6377;42.836;23.998;2023-02-12T13:09:33;96824.84;;;2.66;100.00
12624;BME280;6377;42.836;23.998;2023-02-12T13:12:27;96891.47;;;2.99;100.00
12624;BME280;6377;42.836;23.998;2023-02-12T13:15:03;96827.78;;;2.35;100.00
12624;BME280;6377;42.836;23.998;2023-02-12T13:17:35;96833.16;;;2.46;100.00
12624;BME280;6377;42.836;23.998;2023-02-12T13:20:15;96863.91;;;2.55;100.00
12624;BME280;6377;42.836;23.998;2023-02-12T13:22:49;96900.88;;;2.62;100.00
12624;BME280;6377;42.836;23.998;2023-02-12T13:25:27;96820.59;;;2.39;100.00
12624;BME280;6377;42.836;23.998;2023-02-12T13:27:58;96911.41;;;3.00;100.00
12624;BME280;6377;42.836;23.998;2023-02-12T13:30:30;96883.06;;;2.81;100.00
12624;BME280;6377;42.836;23.998;2023-02-12T13:33:06;96868.53;;;2.77;100.00
12624;BME280;6377;42.836;23.998;2023-02-12T13:35:38;96872.00;;;2.77;100.00
12624;BME280;6377;42.836;23.998;2023-02-12T13:38:08;96887.63;;;2.65;100.00
12624;BME280;6377;42.836;23.998;2023-02-12T13:40:43;96777.94;;;2.13;100.00
12624;BME280;6377;42.836;23.998;2023-02-12T13:43:22;96905.91;;;3.04;100.00
12624;BME280;6377;42.836;23.998;2023-02-12T13:46:02;96910.59;;;2.99;100.00
12624;BME280;6377;42.836;23.998;2023-02-12T13:48:46;96886.66;;;2.93;100.00
12624;BME280;6377;42.836;23.998;2023-02-12T13:51:23;96919.41;;;3.11;100.00
12624;BME280;6377;42.836;23.998;2023-02-12T13:54:05;96845.63;;;2.68;100.00
12624;BME280;6377;42.836;23.998;2023-02-12T13:56:41;96796.28;;;2.51;99.55
12624;BME280;6377;42.836;23.998;2023-02-12T13:59:37;96944.09;;;3.45;100.00
12624;BME280;6377;42.836;23.998;2023-02-12T14:02:24;96951.88;;;3.46;100.00
12624;BME280;6377;42.836;23.998;2023-02-12T14:04:56;96964.63;;;3.51;99.89
12624;BME280;6377;42.836;23.998;2023-02-12T14:07:40;96942.63;;;3.28;100.00
12624;BME280;6377;42.836;23.998;2023-02-12T14:10:19;96922.44;;;3.17;100.00
12624;BME280;6377;42.836;23.998;2023-02-12T14:12:48;96969.22;;;3.47;100.00
12624;BME280;6377;42.836;23.998;2023-02-12T14:15:28;96924.22;;;3.17;99.83
12624;BME280;6377;42.836;23.998;2023-02-12T14:18:20;96973.00;;;3.43;100.00
12624;BME280;6377;42.836;23.998;2023-02-12T14:27:22;96984.56;;;3.26;99.59
12624;BME280;6377;42.836;23.998;2023-02-12T14:30:30;96947.19;;;3.12;100.00
12624;BME280;6377;42.836;23.998;2023-02-12T14:33:15;96987.00;;;3.42;100.00
12624;BME280;6377;42.836;23.998;2023-02-12T14:35:43;96990.34;;;3.44;99.38
12624;BME280;6377;42.836;23.998;2023-02-12T14:41:21;96994.03;;;3.67;97.76
12624;BME280;6377;42.836;23.998;2023-02-12T14:47:49;97004.16;;;3.59;98.06
12624;BME280;6377;42.836;23.998;2023-02-12T14:50:22;96999.75;;;3.34;99.82
12624;BME280;6377;42.836;23.998;2023-02-12T14:52:54;96990.63;;;3.27;100.00
12624;BME280;6377;42.836;23.998;2023-02-12T14:55:26;97002.97;;;3.25;100.00
12624;BME280;6377;42.836;23.998;2023-02-12T14:58:01;97005.41;;;3.28;100.00
12624;BME280;6377;42.836;23.998;2023-02-12T15:00:33;97000.78;;;3.19;100.00
12624;BME280;6377;42.836;23.998;2023-02-12T15:03:15;96946.13;;;2.89;100.00
12624;BME280;6377;42.836;23.998;2023-02-12T15:05:49;96878.69;;;2.42;100.00
12624;BME280;6377;42.836;23.998;2023-02-12T15:08:25;97038.47;;;3.42;100.00
12624;BME280;6377;42.836;23.998;2023-02-12T15:11:00;96998.50;;;3.00;100.00
12624;BME280;6377;42.836;23.998;2023-02-12T15:13:41;97044.63;;;3.28;100.00
12624;BME280;6377;42.836;23.998;2023-02-12T15:16:16;96970.63;;;2.74;100.00
12624;BME280;6377;42.836;23.998;2023-02-12T15:18:54;97027.25;;;3.00;100.00
12624;BME280;6377;42.836;23.998;2023-02-12T15:21:25;96977.47;;;2.62;100.00
12624;BME280;6377;42.836;23.998;2023-02-12T15:24:01;97018.75;;;2.84;100.00
12624;BME280;6377;42.836;23.998;2023-02-12T15:26:30;97061.19;;;3.14;100.00
12624;BME280;6377;42.836;23.998;2023-02-12T15:28:59;97045.66;;;2.99;100.00
12624;BME280;6377;42.836;23.998;2023-02-12T15:31:28;97067.66;;;3.09;100.00
12624;BME280;6377;42.836;23.998;2023-02-12T15:34:00;97053.59;;;2.97;100.00
12624;BME280;6377;42.836;23.998;2023-02-12T15:36:30;97048.66;;;2.93;100.00
12624;BME280;6377;42.836;23.998;2023-02-12T15:39:05;97076.88;;;3.14;100.00
12624;BME280;6377;42.836;23.998;2023-02-12T15:41:39;97088.09;;;3.16;100.00
12624;BME280;6377;42.836;23.998;2023-02-12T15:44:24;97046.78;;;2.95;100.00
12624;BME280;6377;42.836;23.998;2023-02-12T15:46:54;96997.53;;;2.62;100.00